Crystal Springs, North Dakota
Current Conditions -  °F | °C
As of 11:11 AM on Sunday 23 Nov 2014 (Local Time) from KJMS Reporting Station
Overcast Overcast  
Wind Chill: -5°   Ceiling: 3300
Heat Index:   Visibility: 10mi
Dew Point: -4°   Wind: 17mph
Humidity: 67%   Direction: 300°WNW
Pressure: 29.46"   Gusts: NA
Location:  46.8928°N, 99.3208°W
Report Text: KJMS 231711Z AUTO 30015KT 10SM OVC033 01/M04 A2946 RMK AO2 T00111044
Loading
Personal Weather Stations






























Interactive Weather Map New forecast layout! Learn more

10-Day Weather Forecast

Advertisements
Track Severe Weather on mobile